Time;durP1;ratioP1;P1;durP2;ratioP2;P2;SDS_P1;SDS_P2;PMS_P1;PMS_P2;Temp;Humidity;BMP_temperature;BMP_pressure;BME280_temperature;BME280_humidity;BME280_pressure;Samples;Min_cycle;Max_cycle;Signal;HPM_P1;HPM_P2
2023/03/14 00:00:05;;;;;;;57.60;3.30;;;;;;;;;;5058317;28;20460;-70
2023/03/14 00:02:32;;;;;;;57.87;3.20;;;;;;;;;;5057615;28;20502;-69
2023/03/14 00:05:02;;;;;;;57.70;2.67;;;;;;;;;;5056223;28;20452;-69
2023/03/14 00:07:33;;;;;;;58.07;2.93;;;;;;;;;;5056376;28;20570;-69
2023/03/14 00:10:00;;;;;;;57.60;2.90;;;;;;;;;;5055694;28;20444;-69
2023/03/14 00:12:27;;;;;;;58.30;2.90;;;;;;;;;;5055703;28;20462;-69
2023/03/14 00:14:56;;;;;;;57.70;2.80;;;;;;;;;;5055831;28;20782;-69
2023/03/14 00:17:23;;;;;;;56.70;2.80;;;;;;;;;;5056313;28;20560;-70
2023/03/14 00:19:53;;;;;;;57.77;3.13;;;;;;;;;;5055376;28;20971;-69
2023/03/14 00:22:20;;;;;;;58.37;2.87;;;;;;;;;;5058044;28;20856;-69
2023/03/14 00:24:48;;;;;;;57.80;2.90;;;;;;;;;;5057004;28;20448;-69
2023/03/14 00:27:16;;;;;;;58.30;2.80;;;;;;;;;;5054767;28;20542;-69
2023/03/14 00:29:47;;;;;;;57.37;2.70;;;;;;;;;;5056039;28;20455;-69
2023/03/14 00:32:16;;;;;;;59.70;2.93;;;;;;;;;;5057247;28;20449;-69
2023/03/14 00:34:47;;;;;;;57.87;2.87;;;;;;;;;;5058412;28;20448;-69
2023/03/14 00:37:16;;;;;;;57.63;2.93;;;;;;;;;;5058304;28;20460;-69
2023/03/14 00:39:44;;;;;;;58.30;2.83;;;;;;;;;;5056973;28;20476;-69
2023/03/14 00:42:14;;;;;;;57.57;2.70;;;;;;;;;;5055423;28;20479;-69
2023/03/14 00:44:41;;;;;;;57.93;2.90;;;;;;;;;;5054714;28;20498;-69
2023/03/14 00:47:10;;;;;;;58.10;3.10;;;;;;;;;;5054704;28;20492;-69
2023/03/14 00:49:39;;;;;;;58.50;2.80;;;;;;;;;;5054592;28;20535;-69
2023/03/14 00:52:07;;;;;;;58.07;2.80;;;;;;;;;;5054747;28;20452;-69
2023/03/14 00:54:35;;;;;;;58.20;3.00;;;;;;;;;;5054132;28;20832;-69
2023/03/14 00:57:06;;;;;;;58.90;3.60;;;;;;;;;;5052531;28;20853;-68
2023/03/14 00:59:34;;;;;;;57.70;2.90;;;;;;;;;;5033441;28;20448;-69
2023/03/14 01:02:01;;;;;;;58.20;3.10;;;;;;;;;;5051596;28;20460;-69
2023/03/14 01:04:30;;;;;;;58.50;2.93;;;;;;;;;;5051257;28;20819;-69
2023/03/14 01:06:58;;;;;;;57.67;2.77;;;;;;;;;;5051691;28;20578;-69
2023/03/14 01:09:26;;;;;;;58.20;2.70;;;;;;;;;;5051190;28;20448;-69
2023/03/14 01:11:53;;;;;;;60.93;2.83;;;;;;;;;;5051666;28;20455;-69
2023/03/14 01:14:23;;;;;;;57.53;2.63;;;;;;;;;;5051103;28;20487;-69
2023/03/14 01:16:51;;;;;;;57.67;2.63;;;;;;;;;;5051595;28;20774;-69
2023/03/14 01:19:18;;;;;;;57.67;3.00;;;;;;;;;;5051384;28;20444;-69
2023/03/14 01:21:46;;;;;;;58.00;2.80;;;;;;;;;;5051390;28;20444;-69
2023/03/14 01:24:15;;;;;;;58.17;2.90;;;;;;;;;;5051566;28;20444;-69
2023/03/14 01:26:42;;;;;;;61.20;4.40;;;;;;;;;;5051490;28;20490;-69
2023/03/14 01:29:10;;;;;;;57.57;2.60;;;;;;;;;;5051669;28;20444;-69
2023/03/14 01:31:37;;;;;;;58.80;3.40;;;;;;;;;;5051737;28;20452;-69
2023/03/14 01:34:05;;;;;;;57.97;2.77;;;;;;;;;;5052557;28;20837;-69
2023/03/14 01:36:33;;;;;;;57.77;2.80;;;;;;;;;;5051030;28;20988;-69
2023/03/14 01:39:02;;;;;;;58.30;2.90;;;;;;;;;;5051557;28;20452;-69
2023/03/14 01:41:31;;;;;;;57.60;2.67;;;;;;;;;;5052385;28;20447;-69
2023/03/14 01:44:00;;;;;;;57.97;2.87;;;;;;;;;;5056346;28;20455;-69
2023/03/14 01:46:32;;;;;;;58.77;3.00;;;;;;;;;;5056846;28;20463;-69
2023/03/14 01:49:06;;;;;;;58.20;2.80;;;;;;;;;;5057479;28;20452;-69
2023/03/14 01:51:36;;;;;;;57.90;2.90;;;;;;;;;;5038487;28;20540;-69
2023/03/14 01:54:06;;;;;;;57.40;2.73;;;;;;;;;;5056940;28;20490;-69
2023/03/14 01:56:38;;;;;;;57.60;2.60;;;;;;;;;;5055712;28;20472;-69
2023/03/14 01:59:08;;;;;;;57.83;2.67;;;;;;;;;;5055408;28;20443;-69
2023/03/14 02:01:36;;;;;;;57.83;2.60;;;;;;;;;;5055575;28;20830;-69
2023/03/14 02:04:04;;;;;;;58.23;2.73;;;;;;;;;;5055170;28;20452;-69
2023/03/14 02:06:35;;;;;;;57.57;2.60;;;;;;;;;;5054746;28;20552;-69
2023/03/14 02:09:04;;;;;;;57.77;2.70;;;;;;;;;;5054380;28;20458;-70
2023/03/14 02:11:31;;;;;;;59.00;2.90;;;;;;;;;;5055290;28;20502;-69
2023/03/14 02:14:01;;;;;;;58.33;2.60;;;;;;;;;;5054797;28;20444;-68
2023/03/14 02:16:29;;;;;;;59.07;3.00;;;;;;;;;;5054932;28;20468;-70
2023/03/14 02:18:57;;;;;;;57.53;2.70;;;;;;;;;;5054770;28;20463;-69
2023/03/14 02:21:27;;;;;;;58.37;2.60;;;;;;;;;;5055050;28;20456;-69
2023/03/14 02:23:58;;;;;;;58.07;2.87;;;;;;;;;;5054806;28;20470;-69
2023/03/14 02:26:28;;;;;;;57.87;2.73;;;;;;;;;;5054669;28;20848;-69
2023/03/14 02:28:57;;;;;;;57.60;2.80;;;;;;;;;;5054601;28;20484;-70
2023/03/14 02:31:25;;;;;;;57.50;2.60;;;;;;;;;;5054221;28;20949;-69
2023/03/14 02:33:52;;;;;;;57.50;2.80;;;;;;;;;;5053040;28;20494;-69
2023/03/14 02:36:24;;;;;;;57.97;2.90;;;;;;;;;;5054038;28;20976;-69
2023/03/14 02:38:53;;;;;;;57.63;2.80;;;;;;;;;;5053940;28;20447;-69
2023/03/14 02:41:20;;;;;;;57.60;2.70;;;;;;;;;;5054321;28;21029;-69
2023/03/14 02:43:49;;;;;;;57.80;2.60;;;;;;;;;;5054151;28;20444;-69
2023/03/14 02:46:24;;;;;;;57.50;2.70;;;;;;;;;;5053891;28;20491;-69
2023/03/14 02:48:53;;;;;;;57.53;2.60;;;;;;;;;;5053973;28;20852;-69
2023/03/14 02:51:21;;;;;;;57.77;3.00;;;;;;;;;;5054168;28;20941;-69
2023/03/14 02:53:48;;;;;;;57.87;2.70;;;;;;;;;;5054378;28;20539;-69
2023/03/14 02:56:17;;;;;;;57.57;2.70;;;;;;;;;;5053852;28;20507;-70
2023/03/14 02:58:44;;;;;;;57.43;2.50;;;;;;;;;;5054034;28;20444;-70
2023/03/14 03:01:11;;;;;;;57.73;2.60;;;;;;;;;;5054174;28;20941;-69
2023/03/14 03:03:40;;;;;;;57.87;2.60;;;;;;;;;;5054105;28;20474;-70
2023/03/14 03:06:08;;;;;;;58.30;2.60;;;;;;;;;;5053554;28;20468;-70
2023/03/14 03:08:37;;;;;;;57.27;2.37;;;;;;;;;;5053426;28;20863;-70
2023/03/14 03:11:04;;;;;;;57.47;2.63;;;;;;;;;;5053274;28;20463;-70
2023/03/14 03:13:31;;;;;;;58.30;2.60;;;;;;;;;;5053429;28;20825;-70
2023/03/14 03:16:00;;;;;;;59.23;2.50;;;;;;;;;;5052796;28;20996;-70
2023/03/14 03:18:29;;;;;;;57.37;2.70;;;;;;;;;;5053158;28;20448;-70
2023/03/14 03:21:02;;;;;;;58.20;2.90;;;;;;;;;;5053294;28;20521;-70
2023/03/14 03:23:29;;;;;;;57.80;3.00;;;;;;;;;;5053446;28;20486;-70
2023/03/14 03:25:57;;;;;;;57.57;2.63;;;;;;;;;;5053001;28;20555;-70
2023/03/14 03:28:27;;;;;;;57.60;2.70;;;;;;;;;;5052954;28;20485;-70
2023/03/14 03:30:54;;;;;;;58.07;2.70;;;;;;;;;;5035005;28;20463;-70
2023/03/14 03:33:23;;;;;;;61.00;2.73;;;;;;;;;;5052974;28;20823;-70
2023/03/14 03:35:52;;;;;;;58.20;3.03;;;;;;;;;;5052899;28;20475;-70
2023/03/14 03:38:21;;;;;;;57.90;2.70;;;;;;;;;;5052590;28;20475;-70
2023/03/14 03:40:48;;;;;;;60.00;2.90;;;;;;;;;;5034923;28;20444;-71
2023/03/14 03:43:15;;;;;;;57.70;3.17;;;;;;;;;;5052541;28;20986;-71
2023/03/14 03:45:44;;;;;;;57.57;2.60;;;;;;;;;;5052514;28;20892;-70
2023/03/14 03:48:12;;;;;;;59.20;2.80;;;;;;;;;;5052247;28;20487;-71
2023/03/14 03:50:45;;;;;;;58.50;2.77;;;;;;;;;;5052578;28;20460;-71
2023/03/14 03:53:12;;;;;;;57.47;2.90;;;;;;;;;;5052778;28;20462;-71
2023/03/14 03:55:42;;;;;;;61.27;2.70;;;;;;;;;;5052444;28;20450;-71
2023/03/14 03:58:09;;;;;;;58.30;3.03;;;;;;;;;;5052793;28;20455;-71
2023/03/14 04:00:37;;;;;;;59.33;2.97;;;;;;;;;;5052597;28;20448;-71
2023/03/14 04:03:04;;;;;;;57.70;2.70;;;;;;;;;;5052433;28;20452;-70
2023/03/14 04:05:31;;;;;;;57.57;2.70;;;;;;;;;;5052292;28;20478;-71
2023/03/14 04:07:59;;;;;;;58.10;3.27;;;;;;;;;;5033813;28;20476;-71
2023/03/14 04:10:28;;;;;;;58.30;2.83;;;;;;;;;;5051760;28;20452;-71
2023/03/14 04:12:57;;;;;;;58.73;3.03;;;;;;;;;;5051771;28;20820;-71
2023/03/14 04:15:25;;;;;;;60.07;3.13;;;;;;;;;;5052603;28;20456;-71
2023/03/14 04:17:55;;;;;;;58.27;2.80;;;;;;;;;;5052055;28;20468;-73
2023/03/14 04:20:22;;;;;;;59.50;3.10;;;;;;;;;;5051800;28;20448;-73
2023/03/14 04:22:49;;;;;;;59.20;3.07;;;;;;;;;;5052258;28;20453;-71
2023/03/14 04:25:17;;;;;;;59.57;3.03;;;;;;;;;;5051872;28;20448;-71
2023/03/14 04:27:45;;;;;;;57.80;2.97;;;;;;;;;;5052079;28;20868;-71
2023/03/14 04:30:18;;;;;;;59.60;3.47;;;;;;;;;;5051991;28;20444;-71
2023/03/14 04:32:45;;;;;;;60.17;3.20;;;;;;;;;;5052235;28;20459;-72
2023/03/14 04:35:12;;;;;;;60.00;3.50;;;;;;;;;;5051724;28;20452;-71
2023/03/14 04:37:39;;;;;;;59.50;2.70;;;;;;;;;;5051906;28;20460;-71
2023/03/14 04:40:08;;;;;;;62.73;2.90;;;;;;;;;;5051569;28;20448;-71
2023/03/14 04:42:36;;;;;;;59.17;3.17;;;;;;;;;;5052095;28;20547;-71
2023/03/14 04:45:03;;;;;;;58.87;2.90;;;;;;;;;;5052309;28;20460;-70
2023/03/14 04:47:33;;;;;;;59.40;3.07;;;;;;;;;;5052066;28;20995;-71
2023/03/14 04:50:01;;;;;;;59.17;3.20;;;;;;;;;;5051675;28;20487;-71
2023/03/14 04:52:28;;;;;;;59.53;3.43;;;;;;;;;;5051875;28;20483;-71
2023/03/14 04:54:56;;;;;;;59.27;3.10;;;;;;;;;;5052245;28;20809;-70
2023/03/14 04:57:23;;;;;;;57.70;3.13;;;;;;;;;;5051980;28;21007;-70
2023/03/14 04:59:50;;;;;;;58.67;3.03;;;;;;;;;;5033995;28;20455;-71
2023/03/14 05:02:17;;;;;;;59.23;2.90;;;;;;;;;;5051870;28;20541;-71
2023/03/14 05:04:46;;;;;;;62.50;3.20;;;;;;;;;;5051527;28;20448;-71
2023/03/14 05:07:14;;;;;;;59.03;3.10;;;;;;;;;;5052221;28;21020;-71
2023/03/14 05:09:49;;;;;;;57.97;3.10;;;;;;;;;;5051429;28;21026;-71
2023/03/14 05:12:17;;;;;;;59.90;2.83;;;;;;;;;;5051999;28;20424;-71
2023/03/14 05:14:44;;;;;;;58.27;2.80;;;;;;;;;;5051939;28;20456;-71
2023/03/14 05:17:14;;;;;;;60.10;3.17;;;;;;;;;;5051377;28;20468;-71
2023/03/14 05:19:41;;;;;;;58.17;2.80;;;;;;;;;;5055131;28;20478;-72
2023/03/14 05:22:09;;;;;;;58.57;2.97;;;;;;;;;;5056275;28;20444;-71
2023/03/14 05:24:37;;;;;;;61.30;3.23;;;;;;;;;;5055741;28;20444;-71
2023/03/14 05:27:04;;;;;;;58.97;3.03;;;;;;;;;;5055382;28;20480;-72
2023/03/14 05:29:32;;;;;;;61.60;2.60;;;;;;;;;;5055339;28;20484;-72
2023/03/14 05:32:00;;;;;;;59.00;2.93;;;;;;;;;;5055176;28;20491;-72
2023/03/14 05:34:28;;;;;;;59.67;2.60;;;;;;;;;;5053683;28;20491;-72
2023/03/14 05:36:56;;;;;;;59.20;2.60;;;;;;;;;;5055360;28;20478;-72
2023/03/14 05:39:28;;;;;;;57.70;2.60;;;;;;;;;;5055386;28;20452;-72
2023/03/14 05:41:55;;;;;;;60.50;2.50;;;;;;;;;;5055074;28;20453;-72
2023/03/14 05:44:24;;;;;;;57.30;2.60;;;;;;;;;;5055353;28;20463;-72
2023/03/14 05:46:51;;;;;;;57.80;2.53;;;;;;;;;;5037205;28;20796;-72
2023/03/14 05:49:18;;;;;;;61.50;2.90;;;;;;;;;;5054776;28;20488;-72
2023/03/14 05:51:48;;;;;;;59.00;2.70;;;;;;;;;;5036922;28;20460;-72
2023/03/14 05:54:16;;;;;;;60.10;3.20;;;;;;;;;;5054870;28;20782;-72
2023/03/14 05:56:45;;;;;;;57.87;2.63;;;;;;;;;;5054815;28;20467;-72
2023/03/14 05:59:13;;;;;;;60.17;2.87;;;;;;;;;;5054507;28;20457;-72
2023/03/14 06:01:42;;;;;;;57.97;2.70;;;;;;;;;;5037783;28;20486;-72
2023/03/14 06:04:09;;;;;;;59.80;3.17;;;;;;;;;;5054824;28;20455;-72
2023/03/14 06:06:37;;;;;;;59.00;3.17;;;;;;;;;;5054625;28;20844;-72
2023/03/14 06:09:04;;;;;;;58.30;2.70;;;;;;;;;;5054028;28;20483;-72
2023/03/14 06:11:31;;;;;;;60.53;3.30;;;;;;;;;;5054351;28;20448;-72
2023/03/14 06:14:00;;;;;;;58.97;2.87;;;;;;;;;;5054469;28;20975;-72
2023/03/14 06:16:28;;;;;;;57.87;2.80;;;;;;;;;;5054556;28;20543;-72
2023/03/14 06:18:55;;;;;;;59.07;3.03;;;;;;;;;;5054060;28;20440;-72
2023/03/14 06:21:23;;;;;;;58.90;3.00;;;;;;;;;;5054300;28;20874;-72
2023/03/14 06:23:50;;;;;;;59.07;2.60;;;;;;;;;;5054129;28;20816;-72
2023/03/14 06:26:19;;;;;;;59.90;3.03;;;;;;;;;;5036229;28;20472;-72
2023/03/14 06:28:47;;;;;;;62.00;3.00;;;;;;;;;;5053726;28;20520;-72
2023/03/14 06:31:15;;;;;;;59.67;2.80;;;;;;;;;;5053560;28;20448;-72
2023/03/14 06:33:44;;;;;;;59.90;3.17;;;;;;;;;;5054109;28;20452;-72
2023/03/14 06:36:12;;;;;;;58.00;2.93;;;;;;;;;;5053951;28;20569;-72
2023/03/14 06:38:39;;;;;;;58.00;2.80;;;;;;;;;;5053541;28;20440;-72
2023/03/14 06:41:06;;;;;;;58.00;2.90;;;;;;;;;;5054153;28;20444;-72
2023/03/14 06:43:34;;;;;;;58.80;2.60;;;;;;;;;;5053701;28;20448;-72
2023/03/14 06:46:02;;;;;;;67.47;3.10;;;;;;;;;;5053551;28;20996;-72
2023/03/14 06:48:31;;;;;;;58.90;3.10;;;;;;;;;;5035661;28;20988;-72
2023/03/14 06:50:58;;;;;;;59.00;2.87;;;;;;;;;;5053570;28;20444;-72
2023/03/14 06:53:26;;;;;;;58.73;3.40;;;;;;;;;;5053769;28;20471;-72
2023/03/14 06:55:54;;;;;;;58.87;3.10;;;;;;;;;;5053729;28;20527;-72
2023/03/14 06:58:21;;;;;;;58.30;2.70;;;;;;;;;;5053575;28;20441;-72
2023/03/14 07:00:49;;;;;;;58.57;3.03;;;;;;;;;;5053423;28;20827;-72
2023/03/14 07:03:17;;;;;;;58.40;2.80;;;;;;;;;;5053356;28;20452;-72
2023/03/14 07:05:47;;;;;;;57.80;2.80;;;;;;;;;;5053164;28;20535;-72
2023/03/14 07:08:16;;;;;;;58.93;2.90;;;;;;;;;;5053263;28;20639;-72
2023/03/14 07:10:43;;;;;;;57.90;2.90;;;;;;;;;;5051562;28;21007;-72
2023/03/14 07:13:11;;;;;;;58.40;3.37;;;;;;;;;;5053127;28;20990;-73
2023/03/14 07:15:43;;;;;;;59.40;3.27;;;;;;;;;;5053292;28;20817;-73
2023/03/14 07:18:12;;;;;;;59.63;2.80;;;;;;;;;;5052950;28;20456;-73
2023/03/14 07:20:40;;;;;;;58.60;2.80;;;;;;;;;;5052929;28;20444;-73
2023/03/14 07:23:08;;;;;;;60.27;2.87;;;;;;;;;;5051787;28;20497;-73
2023/03/14 07:25:37;;;;;;;67.13;3.13;;;;;;;;;;5053248;28;20567;-73
2023/03/14 07:28:05;;;;;;;58.20;2.80;;;;;;;;;;5052828;28;20450;-73
2023/03/14 07:30:32;;;;;;;61.70;2.93;;;;;;;;;;5052684;28;20505;-72
2023/03/14 07:33:03;;;;;;;59.70;2.90;;;;;;;;;;5051528;28;20470;-73
2023/03/14 07:35:35;;;;;;;60.73;3.10;;;;;;;;;;5052460;28;20456;-72
2023/03/14 07:38:03;;;;;;;58.93;2.57;;;;;;;;;;5053144;28;20452;-73
2023/03/14 07:40:33;;;;;;;60.50;2.77;;;;;;;;;;5052768;28;20535;-72
2023/03/14 07:43:01;;;;;;;57.50;2.60;;;;;;;;;;5052754;28;20483;-72
2023/03/14 07:45:28;;;;;;;57.47;2.33;;;;;;;;;;5052655;28;20957;-72
2023/03/14 07:47:57;;;;;;;58.37;2.33;;;;;;;;;;5052689;28;20448;-73
2023/03/14 07:50:24;;;;;;;57.60;2.20;;;;;;;;;;5052163;28;20484;-73
2023/03/14 07:52:53;;;;;;;60.10;2.40;;;;;;;;;;5052607;28;20449;-73
2023/03/14 07:55:21;;;;;;;57.90;2.57;;;;;;;;;;5050038;28;20456;-76
2023/03/14 07:57:49;;;;;;;59.50;2.40;;;;;;;;;;5051630;28;20503;-75
2023/03/14 08:00:17;;;;;;;60.80;2.60;;;;;;;;;;5051229;28;20884;-74
2023/03/14 08:02:44;;;;;;;57.57;2.43;;;;;;;;;;5052297;28;20458;-73
2023/03/14 08:05:11;;;;;;;58.67;2.30;;;;;;;;;;5052596;28;20890;-74
2023/03/14 08:07:39;;;;;;;58.00;2.40;;;;;;;;;;5052189;28;20981;-75
2023/03/14 08:10:09;;;;;;;57.30;2.10;;;;;;;;;;5051651;28;20579;-75
2023/03/14 08:12:36;;;;;;;58.37;2.20;;;;;;;;;;5051851;28;20838;-75
2023/03/14 08:15:05;;;;;;;57.30;2.50;;;;;;;;;;5052200;28;20454;-73
2023/03/14 08:17:32;;;;;;;59.17;2.40;;;;;;;;;;5051481;28;20486;-73
2023/03/14 08:19:59;;;;;;;58.57;2.40;;;;;;;;;;5051901;28;20444;-74
2023/03/14 08:22:28;;;;;;;62.73;2.70;;;;;;;;;;5051675;28;20453;-75
2023/03/14 08:24:55;;;;;;;58.83;2.30;;;;;;;;;;5051968;28;20570;-75
2023/03/14 08:27:22;;;;;;;58.33;2.40;;;;;;;;;;5033430;28;20478;-74
2023/03/14 08:29:50;;;;;;;62.63;2.77;;;;;;;;;;5050933;28;20554;-74
2023/03/14 08:32:22;;;;;;;58.40;2.40;;;;;;;;;;5051778;28;20463;-71
2023/03/14 08:34:50;;;;;;;59.13;2.80;;;;;;;;;;5051821;28;20463;-73
2023/03/14 08:37:20;;;;;;;57.97;2.40;;;;;;;;;;5051599;28;20470;-72
2023/03/14 08:39:48;;;;;;;57.57;2.40;;;;;;;;;;5051361;28;20449;-73
2023/03/14 08:42:15;;;;;;;58.00;2.43;;;;;;;;;;5051409;28;20514;-73
2023/03/14 08:44:43;;;;;;;58.00;2.40;;;;;;;;;;5051551;28;20490;-73
2023/03/14 08:47:10;;;;;;;58.80;2.67;;;;;;;;;;5051156;28;20870;-73
2023/03/14 08:49:39;;;;;;;60.30;2.70;;;;;;;;;;5051225;28;20488;-73
2023/03/14 08:52:06;;;;;;;57.87;2.50;;;;;;;;;;5051078;28;20451;-73
2023/03/14 08:54:35;;;;;;;59.40;2.83;;;;;;;;;;5051284;28;20535;-73
2023/03/14 08:57:02;;;;;;;58.90;2.60;;;;;;;;;;5051396;28;20559;-73
2023/03/14 08:59:30;;;;;;;59.07;2.90;;;;;;;;;;5051176;28;20551;-71
2023/03/14 09:01:57;;;;;;;57.80;2.37;;;;;;;;;;5051446;28;20949;-74
2023/03/14 09:04:25;;;;;;;58.07;2.70;;;;;;;;;;5051198;28;20460;-73
2023/03/14 09:06:53;;;;;;;58.17;2.70;;;;;;;;;;5050833;28;20480;-73
2023/03/14 09:09:21;;;;;;;57.57;2.30;;;;;;;;;;5051169;28;20483;-73
2023/03/14 09:11:48;;;;;;;58.27;2.50;;;;;;;;;;5051263;28;20451;-73
2023/03/14 09:14:16;;;;;;;57.47;2.30;;;;;;;;;;5033384;28;21035;-73
2023/03/14 09:16:43;;;;;;;58.67;2.57;;;;;;;;;;5051351;28;20529;-73
2023/03/14 09:19:10;;;;;;;59.50;2.30;;;;;;;;;;5050823;28;20446;-73
2023/03/14 09:21:38;;;;;;;57.70;2.50;;;;;;;;;;5033222;28;20444;-73
2023/03/14 09:24:08;;;;;;;57.90;2.43;;;;;;;;;;5033335;28;20463;-73
2023/03/14 09:26:35;;;;;;;58.70;2.53;;;;;;;;;;5051404;28;20867;-73
2023/03/14 09:29:03;;;;;;;57.80;2.40;;;;;;;;;;5050566;28;20457;-73
2023/03/14 09:31:32;;;;;;;61.60;2.40;;;;;;;;;;5051345;28;20452;-72
2023/03/14 09:33:59;;;;;;;57.70;2.30;;;;;;;;;;5050901;28;20555;-71
2023/03/14 09:36:26;;;;;;;57.27;2.20;;;;;;;;;;5051311;28;20939;-71
2023/03/14 09:38:53;;;;;;;60.50;2.27;;;;;;;;;;5050764;28;20448;-75
2023/03/14 09:41:32;;;;;;;57.30;2.20;;;;;;;;;;5051050;28;20971;-74
2023/03/14 09:44:05;;;;;;;57.70;2.40;;;;;;;;;;5050607;28;20856;-72
2023/03/14 09:46:34;;;;;;;61.80;2.60;;;;;;;;;;5049851;28;20479;-75
2023/03/14 09:49:01;;;;;;;57.67;2.30;;;;;;;;;;5050611;28;20453;-72
2023/03/14 09:51:29;;;;;;;57.50;2.53;;;;;;;;;;5051264;28;20448;-74
2023/03/14 09:53:56;;;;;;;58.37;2.43;;;;;;;;;;5051471;28;20448;-74
2023/03/14 09:56:27;;;;;;;57.50;2.20;;;;;;;;;;5050969;28;20472;-75
2023/03/14 09:58:56;;;;;;;57.80;2.40;;;;;;;;;;5050577;28;20501;-74
2023/03/14 10:01:26;;;;;;;57.60;2.40;;;;;;;;;;5050831;28;20452;-75
2023/03/14 10:03:55;;;;;;;57.13;2.17;;;;;;;;;;5050624;28;20459;-75
2023/03/14 10:06:28;;;;;;;57.93;2.77;;;;;;;;;;5054056;28;20845;-72
2023/03/14 10:08:56;;;;;;;58.73;2.27;;;;;;;;;;5054174;28;20825;-74
2023/03/14 10:11:25;;;;;;;57.53;2.30;;;;;;;;;;5054338;28;20864;-74
2023/03/14 10:14:06;;;;;;;57.80;2.50;;;;;;;;;;5054691;28;20452;-74
2023/03/14 10:16:36;;;;;;;58.27;2.10;;;;;;;;;;5054328;28;20537;-75
2023/03/14 10:19:05;;;;;;;57.80;2.33;;;;;;;;;;5054167;28;20452;-74
2023/03/14 10:21:37;;;;;;;57.77;2.17;;;;;;;;;;5052578;28;20453;-75
2023/03/14 10:24:33;;;;;;;57.60;2.53;;;;;;;;;;5054122;28;20452;-72
2023/03/14 10:27:03;;;;;;;57.40;2.30;;;;;;;;;;5052474;28;20582;-75
2023/03/14 10:29:31;;;;;;;57.57;2.30;;;;;;;;;;5053966;28;20516;-74
2023/03/14 10:32:08;;;;;;;58.00;2.60;;;;;;;;;;5053987;28;20535;-76
2023/03/14 10:34:38;;;;;;;57.60;2.57;;;;;;;;;;5054195;28;20534;-76
2023/03/14 10:37:08;;;;;;;57.70;2.30;;;;;;;;;;5035763;28;20500;-72
2023/03/14 10:39:41;;;;;;;57.80;2.40;;;;;;;;;;5052758;28;20944;-74
2023/03/14 10:42:15;;;;;;;57.27;2.20;;;;;;;;;;5053853;28;20510;-74
2023/03/14 10:44:43;;;;;;;57.03;2.10;;;;;;;;;;5054114;28;20462;-75
2023/03/14 10:47:18;;;;;;;58.00;2.37;;;;;;;;;;5053748;28;20487;-74
2023/03/14 10:49:46;;;;;;;57.30;2.30;;;;;;;;;;5035660;28;20855;-75
2023/03/14 10:52:23;;;;;;;58.13;2.20;;;;;;;;;;5035825;28;20797;-75
2023/03/14 10:54:51;;;;;;;57.33;2.20;;;;;;;;;;5054175;28;20833;-73
2023/03/14 10:57:21;;;;;;;57.07;2.30;;;;;;;;;;5035882;28;20556;-72
2023/03/14 10:59:51;;;;;;;57.27;2.30;;;;;;;;;;5053411;28;20444;-72
2023/03/14 11:02:36;;;;;;;57.07;2.30;;;;;;;;;;5053459;28;20467;-72
2023/03/14 11:05:13;;;;;;;57.80;2.30;;;;;;;;;;5053718;28;20546;-73
2023/03/14 11:07:41;;;;;;;57.30;2.20;;;;;;;;;;5053360;28;20984;-74
2023/03/14 11:10:15;;;;;;;57.00;2.13;;;;;;;;;;5052857;28;20522;-73
2023/03/14 11:12:54;;;;;;;57.90;2.30;;;;;;;;;;5051569;28;20454;-73
2023/03/14 11:15:26;;;;;;;57.97;2.30;;;;;;;;;;5052954;28;20506;-73
2023/03/14 11:18:00;;;;;;;58.47;2.40;;;;;;;;;;5035297;28;20468;-73
2023/03/14 11:20:34;;;;;;;59.30;2.47;;;;;;;;;;5053232;28;20467;-73
2023/03/14 11:23:07;;;;;;;57.90;2.50;;;;;;;;;;5053016;28;20526;-73
2023/03/14 11:25:39;;;;;;;57.37;2.30;;;;;;;;;;5052431;28;20543;-73
2023/03/14 11:28:12;;;;;;;57.60;2.20;;;;;;;;;;5053083;28;20829;-74
2023/03/14 11:30:42;;;;;;;57.80;2.50;;;;;;;;;;5051055;28;20570;-74
2023/03/14 11:33:14;;;;;;;57.40;2.60;;;;;;;;;;5053374;28;20555;-72
2023/03/14 11:35:45;;;;;;;57.50;2.30;;;;;;;;;;5052565;28;20452;-73
2023/03/14 11:38:16;;;;;;;57.27;2.33;;;;;;;;;;5035009;28;20445;-75
2023/03/14 11:40:43;;;;;;;57.60;2.50;;;;;;;;;;5052877;28;20929;-74
2023/03/14 11:43:15;;;;;;;57.77;2.50;;;;;;;;;;5034986;28;20448;-74
2023/03/14 11:45:43;;;;;;;57.67;2.40;;;;;;;;;;5052553;28;20460;-74
2023/03/14 11:48:24;;;;;;;57.30;2.30;;;;;;;;;;5052460;28;20972;-74
2023/03/14 11:50:53;;;;;;;57.50;2.20;;;;;;;;;;5052616;28;20488;-74
2023/03/14 11:53:23;;;;;;;58.30;2.30;;;;;;;;;;5052735;28;20448;-74
2023/03/14 11:55:53;;;;;;;57.60;2.40;;;;;;;;;;5052485;28;20867;-74
2023/03/14 11:58:25;;;;;;;57.57;2.20;;;;;;;;;;5034342;28;20457;-74
2023/03/14 12:00:54;;;;;;;57.57;2.37;;;;;;;;;;5052330;28;20937;-74
2023/03/14 12:03:28;;;;;;;57.30;2.17;;;;;;;;;;5052458;28;20458;-74
2023/03/14 12:06:07;;;;;;;57.90;2.47;;;;;;;;;;5052635;28;20476;-74
2023/03/14 12:08:44;;;;;;;57.60;2.20;;;;;;;;;;5048679;28;20836;-75
2023/03/14 12:11:16;;;;;;;57.27;2.20;;;;;;;;;;5052323;28;20541;-73
2023/03/14 12:13:48;;;;;;;57.37;2.30;;;;;;;;;;5052358;28;21005;-74
2023/03/14 12:16:24;;;;;;;57.50;2.50;;;;;;;;;;5052293;28;20471;-74
2023/03/14 12:18:52;;;;;;;57.50;2.30;;;;;;;;;;5051982;28;20448;-74
2023/03/14 12:21:20;;;;;;;57.80;2.30;;;;;;;;;;5051822;28;20484;-74
2023/03/14 12:23:51;;;;;;;57.07;2.00;;;;;;;;;;5052166;28;20454;-74
2023/03/14 12:26:18;;;;;;;58.00;2.27;;;;;;;;;;5051597;28;20542;-74
2023/03/14 12:28:53;;;;;;;57.10;2.20;;;;;;;;;;5050993;28;20523;-74
2023/03/14 12:31:39;;;;;;;58.80;2.30;;;;;;;;;;5051685;28;20477;-74
2023/03/14 12:34:21;;;;;;;57.50;2.20;;;;;;;;;;5052049;28;20461;-74
2023/03/14 12:36:58;;;;;;;58.77;2.20;;;;;;;;;;5051422;28;20559;-73
2023/03/14 12:39:35;;;;;;;57.60;2.40;;;;;;;;;;5051675;28;20820;-74
2023/03/14 12:42:04;;;;;;;57.30;2.30;;;;;;;;;;5051830;28;20867;-73
2023/03/14 12:44:45;;;;;;;57.40;2.30;;;;;;;;;;5051973;28;20515;-74
2023/03/14 12:47:43;;;;;;;58.00;2.40;;;;;;;;;;5033858;28;20471;-74
2023/03/14 12:50:14;;;;;;;57.47;2.60;;;;;;;;;;5051347;28;20542;-74
2023/03/14 12:52:45;;;;;;;58.73;2.80;;;;;;;;;;5050406;28;20444;-74
2023/03/14 12:55:17;;;;;;;59.40;2.50;;;;;;;;;;5051784;28;20458;-74
2023/03/14 12:57:47;;;;;;;58.30;2.70;;;;;;;;;;5051765;28;20478;-74
2023/03/14 13:00:23;;;;;;;59.67;2.63;;;;;;;;;;5051668;28;20452;-73
2023/03/14 13:02:51;;;;;;;57.50;3.00;;;;;;;;;;5051578;28;20454;-73
2023/03/14 13:05:24;;;;;;;57.87;2.70;;;;;;;;;;5051462;28;20441;-74
2023/03/14 13:08:06;;;;;;;58.07;2.40;;;;;;;;;;5051679;28;20594;-74
2023/03/14 13:10:41;;;;;;;58.20;2.70;;;;;;;;;;5051305;28;20491;-74
2023/03/14 13:13:16;;;;;;;57.57;2.60;;;;;;;;;;5051598;28;20443;-72
2023/03/14 13:15:45;;;;;;;57.73;2.83;;;;;;;;;;5051269;28;21060;-74
2023/03/14 13:18:14;;;;;;;58.17;2.60;;;;;;;;;;5050149;28;20459;-74
2023/03/14 13:20:48;;;;;;;58.17;2.60;;;;;;;;;;5051135;28;20444;-73
2023/03/14 13:23:22;;;;;;;58.60;2.50;;;;;;;;;;5051499;28;20567;-72
2023/03/14 13:25:50;;;;;;;58.10;2.70;;;;;;;;;;5048434;28;20448;-74
2023/03/14 13:28:18;;;;;;;58.87;2.40;;;;;;;;;;5050847;28;20495;-72
2023/03/14 13:30:47;;;;;;;58.00;2.67;;;;;;;;;;5050619;28;20479;-72
2023/03/14 13:33:16;;;;;;;59.60;2.40;;;;;;;;;;5051096;28;20478;-72
2023/03/14 13:35:46;;;;;;;57.50;2.43;;;;;;;;;;5051252;28;20450;-72
2023/03/14 13:38:21;;;;;;;57.53;2.60;;;;;;;;;;5050617;28;20452;-72
2023/03/14 13:40:49;;;;;;;57.80;2.77;;;;;;;;;;5054572;28;20947;-74
2023/03/14 13:43:17;;;;;;;57.97;2.70;;;;;;;;;;5054179;28;20488;-72
2023/03/14 13:45:52;;;;;;;57.43;2.70;;;;;;;;;;5036917;28;20973;-72
2023/03/14 13:48:20;;;;;;;58.33;2.70;;;;;;;;;;5054907;28;20550;-72
2023/03/14 13:50:52;;;;;;;58.33;2.80;;;;;;;;;;5054247;28;20486;-73
2023/03/14 13:53:20;;;;;;;57.67;2.40;;;;;;;;;;5054977;28;20474;-73
2023/03/14 13:55:48;;;;;;;58.77;2.80;;;;;;;;;;5054623;28;21057;-72
2023/03/14 13:58:22;;;;;;;57.37;2.43;;;;;;;;;;5036536;28;20452;-72
2023/03/14 14:01:15;;;;;;;59.37;2.70;;;;;;;;;;5054383;28;20779;-71
2023/03/14 14:03:43;;;;;;;58.10;2.37;;;;;;;;;;5054562;28;20444;-72
2023/03/14 14:06:18;;;;;;;57.47;2.60;;;;;;;;;;5054557;28;20479;-73
2023/03/14 14:08:46;;;;;;;58.50;2.57;;;;;;;;;;5054112;28;20509;-72
2023/03/14 14:11:18;;;;;;;57.77;2.73;;;;;;;;;;5054334;28;20492;-72
2023/03/14 14:13:47;;;;;;;57.67;2.57;;;;;;;;;;5054783;28;20448;-72
2023/03/14 14:16:21;;;;;;;60.13;2.50;;;;;;;;;;5053368;28;20859;-72
2023/03/14 14:18:49;;;;;;;58.63;2.60;;;;;;;;;;5053393;28;20456;-73
2023/03/14 14:21:16;;;;;;;57.50;2.60;;;;;;;;;;5054423;28;20454;-73
2023/03/14 14:23:44;;;;;;;57.40;2.40;;;;;;;;;;5054224;28;20448;-71
2023/03/14 14:26:16;;;;;;;65.80;2.87;;;;;;;;;;5053970;28;20464;-71
2023/03/14 14:28:43;;;;;;;58.10;2.60;;;;;;;;;;5035879;28;20517;-70
2023/03/14 14:31:24;;;;;;;59.40;2.60;;;;;;;;;;5054156;28;20491;-74
2023/03/14 14:33:56;;;;;;;57.80;2.50;;;;;;;;;;5036059;28;20448;-70
2023/03/14 14:36:24;;;;;;;58.00;2.60;;;;;;;;;;5053788;28;20479;-71
2023/03/14 14:38:52;;;;;;;58.40;3.00;;;;;;;;;;5053010;28;20456;-72
2023/03/14 14:41:22;;;;;;;57.57;2.67;;;;;;;;;;5053957;28;20967;-73
2023/03/14 14:43:53;;;;;;;58.07;2.50;;;;;;;;;;5053848;28;20494;-72